Boi Taull, Spain
Current Conditions -  °F | °C
As of 11:00 PM on Sunday 25 Jan 2015 (Local Time) from LFBT Reporting Station
Overcast Overcast  
Wind Chill: 34°   Ceiling: 3200
Heat Index: 34°   Visibility: 6mi
Dew Point: 30°   Wind: 3mph
Humidity: 87%   Direction: 160°SSE
Pressure: 30.5"   Gusts: NA
Location:  42.52°N, 0.85°E
Report Text: LFBT 252200Z AUTO 16003KT 9999 BKN032 OVC094 01/M01 Q1033
Loading
Personal Weather Stations






























Interactive Weather Map New forecast layout! Learn more

10-Day Weather Forecast

Advertisements
Track Severe Weather on mobile